Park Rapids, Minnesota
Current Conditions -  °F | °C
As of 3:53 AM on Monday 22 Dec 2014 (Local Time) from KPKD Reporting Station
Haze Haze  
Wind Chill: -3°   Ceiling: 400
Heat Index:   Visibility: 5mi
Dew Point:   Wind: 12mph
Humidity: 96%   Direction: 130°SE
Pressure: 29.56"   Gusts: NA
Location:  46.92°N, 95.06°W
Report Text: KPKD 220953Z AUTO 13010KT 5SM BR OVC004 02/01 A2956 RMK AO2 SLP026 T00170011
Loading
Personal Weather Stations






























Interactive Weather Map New forecast layout! Learn more

10-Day Weather Forecast

Advertisements
Track Severe Weather on mobile